Date,TemperatureHighF,TemperatureAvgF,TemperatureLowF,DewpointHighF,DewpointAvgF,DewpointLowF,HumidityHigh,HumidityAvg,HumidityLow,PressureMaxIn,PressureMinIn,WindSpeedMaxMPH,WindSpeedAvgMPH,GustSpeedMaxMPH,PrecipitationSumIn
2013-10-1,48,39,28,42,34,26,92,82,59,30.11,29.89,8,2,10,0.18
2013-10-2,48,35,26,36,30,24,96,82,45,30.11,29.99,7,2,13,0.07
2013-10-3,50,37,26,33,30,24,95,76,50,30.37,30.08,5,1,7,0.01
2013-10-4,58,39,22,34,27,20,93,68,31,30.47,30.35,3,1,6,0.01
2013-10-5,72,46,27,35,28,23,88,57,16,30.39,30.16,5,1,9,0.00
2013-10-6,74,47,29,36,29,25,87,59,20,30.17,29.90,5,2,8,0.00
2013-10-7,51,45,38,39,34,25,84,66,48,29.99,29.84,8,3,14,0.00
2013-10-8,49,38,28,39,34,25,95,84,56,30.00,29.85,4,1,9,0.02
2013-10-9,42,37,33,35,33,30,94,86,72,29.94,29.87,5,2,11,0.03
2013-10-10,56,40,28,36,31,26,95,74,43,30.00,29.86,4,1,5,0.00
2013-10-11,54,37,25,38,30,23,95,78,41,30.07,29.99,4,1,6,0.00
2013-10-12,46,38,28,39,33,26,100,85,66,30.07,29.94,4,1,6,0.03
2013-10-13,49,40,29,37,34,26,92,80,54,30.23,30.05,4,1,6,0.00
2013-10-14,53,36,22,35,24,-100,94,71,44,30.35,30.23,4,-38,8,0.00
2013-10-15,61,38,24,31,26,22,94,68,26,30.35,30.14,4,1,9,0.00
2013-10-16,65,41,26,32,26,21,86,59,24,30.15,30.03,3,1,7,0.00
2013-10-17,60,40,24,36,28,21,91,67,34,30.20,30.12,3,1,6,0.00
2013-10-18,66,42,24,38,30,22,93,69,30,30.23,30.10,3,1,5,0.00
2013-10-19,74,46,28,36,30,25,92,62,18,30.15,30.02,5,1,7,0.00
2013-10-20,69,44,25,36,29,22,92,62,24,30.14,30.05,3,1,7,0.00
2013-10-21,68,45,26,39,32,24,91,65,30,30.15,30.03,3,1,6,0.00
2013-10-22,70,44,27,40,33,24,92,69,31,30.12,29.98,3,0,6,0.01
2013-10-23,68,45,27,40,34,25,92,69,33,30.05,29.95,3,1,6,0.00
2013-10-24,72,45,27,42,34,25,94,70,21,30.06,29.95,4,1,7,0.00
2013-10-25,71,45,27,40,31,25,94,66,21,30.20,30.06,4,1,7,0.01
2013-10-26,72,44,27,38,30,24,90,65,21,30.24,30.03,5,1,8,0.00
2013-10-27,49,35,26,41,32,24,96,88,48,30.04,29.64,6,2,9,0.19
2013-10-28,38,32,30,37,28,22,96,85,69,29.86,29.66,7,4,14,0.14
2013-10-29,48,33,21,28,23,18,91,70,43,30.02,29.86,3,1,7,0.06
2013-10-30,57,37,25,35,29,23,95,76,40,30.15,30.01,5,1,9,0.01
2013-10-31,54,44,34,47,39,31,94,84,75,30.18,30.09,5,2,8,0.00